sensor_id;sensor_type;location;lat;lon;timestamp;temperature;humidity
46494;DHT22;53214;49.314;6.280;2024-02-15T00:00:52;12.60;99.90
46494;DHT22;53214;49.314;6.280;2024-02-15T00:03:20;12.50;99.90
46494;DHT22;53214;49.314;6.280;2024-02-15T00:05:48;12.50;99.90
46494;DHT22;53214;49.314;6.280;2024-02-15T00:08:15;12.50;99.90
46494;DHT22;53214;49.314;6.280;2024-02-15T00:10:42;12.50;99.90
46494;DHT22;53214;49.314;6.280;2024-02-15T00:13:09;12.50;99.90
46494;DHT22;53214;49.314;6.280;2024-02-15T00:15:36;12.40;99.90
46494;DHT22;53214;49.314;6.280;2024-02-15T00:18:04;12.40;99.90
46494;DHT22;53214;49.314;6.280;2024-02-15T00:20:31;12.40;99.90
46494;DHT22;53214;49.314;6.280;2024-02-15T00:23:00;12.40;99.90
46494;DHT22;53214;49.314;6.280;2024-02-15T00:25:27;12.40;99.90
46494;DHT22;53214;49.314;6.280;2024-02-15T00:27:54;12.40;99.90
46494;DHT22;53214;49.314;6.280;2024-02-15T00:30:21;12.40;99.90
46494;DHT22;53214;49.314;6.280;2024-02-15T00:32:48;12.40;99.90
46494;DHT22;53214;49.314;6.280;2024-02-15T00:35:16;12.40;99.90
46494;DHT22;53214;49.314;6.280;2024-02-15T00:37:43;12.40;99.90
46494;DHT22;53214;49.314;6.280;2024-02-15T00:40:11;12.40;99.90
46494;DHT22;53214;49.314;6.280;2024-02-15T00:42:38;12.40;99.90
46494;DHT22;53214;49.314;6.280;2024-02-15T00:45:06;12.40;99.90
46494;DHT22;53214;49.314;6.280;2024-02-15T00:47:36;12.30;99.90
46494;DHT22;53214;49.314;6.280;2024-02-15T00:50:05;12.40;99.90
46494;DHT22;53214;49.314;6.280;2024-02-15T00:52:32;12.30;99.90
46494;DHT22;53214;49.314;6.280;2024-02-15T00:54:59;12.30;99.90
46494;DHT22;53214;49.314;6.280;2024-02-15T00:57:26;12.30;99.90
46494;DHT22;53214;49.314;6.280;2024-02-15T00:59:53;12.20;99.90
46494;DHT22;53214;49.314;6.280;2024-02-15T01:02:20;12.30;99.90
46494;DHT22;53214;49.314;6.280;2024-02-15T01:04:48;12.20;99.90
46494;DHT22;53214;49.314;6.280;2024-02-15T01:07:15;12.20;99.90
46494;DHT22;53214;49.314;6.280;2024-02-15T01:09:42;12.30;99.90
46494;DHT22;53214;49.314;6.280;2024-02-15T01:12:09;12.20;99.90
46494;DHT22;53214;49.314;6.280;2024-02-15T01:14:37;12.20;99.90
46494;DHT22;53214;49.314;6.280;2024-02-15T01:17:04;12.20;99.90
46494;DHT22;53214;49.314;6.280;2024-02-15T01:19:31;12.20;99.90
46494;DHT22;53214;49.314;6.280;2024-02-15T01:21:57;12.20;99.90
46494;DHT22;53214;49.314;6.280;2024-02-15T01:24:26;12.20;99.90
46494;DHT22;53214;49.314;6.280;2024-02-15T01:26:53;12.20;99.90
46494;DHT22;53214;49.314;6.280;2024-02-15T01:29:20;12.20;99.90
46494;DHT22;53214;49.314;6.280;2024-02-15T01:31:47;12.20;99.90
46494;DHT22;53214;49.314;6.280;2024-02-15T01:34:13;12.20;99.90
46494;DHT22;53214;49.314;6.280;2024-02-15T01:36:41;12.20;99.90
46494;DHT22;53214;49.314;6.280;2024-02-15T01:39:07;12.10;99.90
46494;DHT22;53214;49.314;6.280;2024-02-15T01:41:35;12.10;99.90
46494;DHT22;53214;49.314;6.280;2024-02-15T01:44:02;12.10;99.90
46494;DHT22;53214;49.314;6.280;2024-02-15T01:46:29;12.10;99.90
46494;DHT22;53214;49.314;6.280;2024-02-15T01:48:56;12.10;99.90
46494;DHT22;53214;49.314;6.280;2024-02-15T01:51:25;12.00;99.90
46494;DHT22;53214;49.314;6.280;2024-02-15T01:53:54;12.10;99.90
46494;DHT22;53214;49.314;6.280;2024-02-15T01:56:22;12.10;99.90
46494;DHT22;53214;49.314;6.280;2024-02-15T01:58:52;12.00;99.90
46494;DHT22;53214;49.314;6.280;2024-02-15T02:01:20;12.00;99.90
46494;DHT22;53214;49.314;6.280;2024-02-15T02:03:47;12.00;99.90
46494;DHT22;53214;49.314;6.280;2024-02-15T02:06:14;11.90;99.90
46494;DHT22;53214;49.314;6.280;2024-02-15T02:08:42;11.90;99.90
46494;DHT22;53214;49.314;6.280;2024-02-15T02:11:10;11.90;99.90
46494;DHT22;53214;49.314;6.280;2024-02-15T02:13:36;11.90;99.90
46494;DHT22;53214;49.314;6.280;2024-02-15T02:16:03;11.90;99.90
46494;DHT22;53214;49.314;6.280;2024-02-15T02:18:30;11.80;99.90
46494;DHT22;53214;49.314;6.280;2024-02-15T02:20:57;11.90;99.90
46494;DHT22;53214;49.314;6.280;2024-02-15T02:23:26;11.90;99.90
46494;DHT22;53214;49.314;6.280;2024-02-15T02:25:55;11.90;99.90
46494;DHT22;53214;49.314;6.280;2024-02-15T02:28:23;11.80;99.90
46494;DHT22;53214;49.314;6.280;2024-02-15T02:30:50;11.80;99.90
46494;DHT22;53214;49.314;6.280;2024-02-15T02:33:17;11.90;99.90
46494;DHT22;53214;49.314;6.280;2024-02-15T02:35:49;11.80;99.90
46494;DHT22;53214;49.314;6.280;2024-02-15T02:38:17;11.80;99.90
46494;DHT22;53214;49.314;6.280;2024-02-15T02:40:43;11.80;99.90
46494;DHT22;53214;49.314;6.280;2024-02-15T02:43:10;11.80;99.90
46494;DHT22;53214;49.314;6.280;2024-02-15T02:45:37;11.80;99.90
46494;DHT22;53214;49.314;6.280;2024-02-15T02:48:04;11.70;99.90
46494;DHT22;53214;49.314;6.280;2024-02-15T02:50:32;11.80;99.90
46494;DHT22;53214;49.314;6.280;2024-02-15T02:52:59;11.80;99.90
46494;DHT22;53214;49.314;6.280;2024-02-15T02:55:26;11.80;99.90
46494;DHT22;53214;49.314;6.280;2024-02-15T02:57:57;11.70;99.90
46494;DHT22;53214;49.314;6.280;2024-02-15T03:00:24;11.70;99.90
46494;DHT22;53214;49.314;6.280;2024-02-15T03:02:51;11.70;99.90
46494;DHT22;53214;49.314;6.280;2024-02-15T03:05:18;11.80;99.90
46494;DHT22;53214;49.314;6.280;2024-02-15T03:07:48;11.80;99.90
46494;DHT22;53214;49.314;6.280;2024-02-15T03:10:15;11.70;99.90
46494;DHT22;53214;49.314;6.280;2024-02-15T03:12:42;11.80;99.90
46494;DHT22;53214;49.314;6.280;2024-02-15T03:15:16;11.70;99.90
46494;DHT22;53214;49.314;6.280;2024-02-15T03:17:46;11.70;99.90
46494;DHT22;53214;49.314;6.280;2024-02-15T03:20:13;11.70;99.90
46494;DHT22;53214;49.314;6.280;2024-02-15T03:23:00;11.70;99.90
46494;DHT22;53214;49.314;6.280;2024-02-15T03:25:28;11.60;99.90
46494;DHT22;53214;49.314;6.280;2024-02-15T03:27:57;11.60;99.90
46494;DHT22;53214;49.314;6.280;2024-02-15T03:30:25;11.60;99.90
46494;DHT22;53214;49.314;6.280;2024-02-15T03:32:53;11.60;99.90
46494;DHT22;53214;49.314;6.280;2024-02-15T03:35:22;11.60;99.90
46494;DHT22;53214;49.314;6.280;2024-02-15T03:37:50;11.60;99.90
46494;DHT22;53214;49.314;6.280;2024-02-15T03:40:21;11.50;99.90
46494;DHT22;53214;49.314;6.280;2024-02-15T03:42:48;11.50;99.90
46494;DHT22;53214;49.314;6.280;2024-02-15T03:45:17;11.50;99.90
46494;DHT22;53214;49.314;6.280;2024-02-15T03:47:44;11.50;99.90
46494;DHT22;53214;49.314;6.280;2024-02-15T03:50:13;11.40;99.90
46494;DHT22;53214;49.314;6.280;2024-02-15T03:52:42;11.40;99.90
46494;DHT22;53214;49.314;6.280;2024-02-15T03:55:10;11.40;99.90
46494;DHT22;53214;49.314;6.280;2024-02-15T03:57:40;11.40;99.90
46494;DHT22;53214;49.314;6.280;2024-02-15T04:00:08;11.40;99.90
46494;DHT22;53214;49.314;6.280;2024-02-15T04:02:38;11.30;99.90
46494;DHT22;53214;49.314;6.280;2024-02-15T04:05:08;11.40;99.90
46494;DHT22;53214;49.314;6.280;2024-02-15T04:07:36;11.30;99.90
46494;DHT22;53214;49.314;6.280;2024-02-15T04:10:05;11.30;99.90
46494;DHT22;53214;49.314;6.280;2024-02-15T04:12:33;11.30;99.90
46494;DHT22;53214;49.314;6.280;2024-02-15T04:15:00;11.20;99.90
46494;DHT22;53214;49.314;6.280;2024-02-15T04:17:32;11.20;99.90
46494;DHT22;53214;49.314;6.280;2024-02-15T04:20:02;11.20;99.90
46494;DHT22;53214;49.314;6.280;2024-02-15T04:22:31;11.20;99.90
46494;DHT22;53214;49.314;6.280;2024-02-15T04:25:07;11.10;99.90
46494;DHT22;53214;49.314;6.280;2024-02-15T04:27:37;11.10;99.90
46494;DHT22;53214;49.314;6.280;2024-02-15T04:30:04;11.10;99.90
46494;DHT22;53214;49.314;6.280;2024-02-15T04:32:32;11.10;99.90
46494;DHT22;53214;49.314;6.280;2024-02-15T04:35:01;11.10;99.90
46494;DHT22;53214;49.314;6.280;2024-02-15T04:37:29;11.10;99.90
46494;DHT22;53214;49.314;6.280;2024-02-15T04:39:56;11.10;99.90
46494;DHT22;53214;49.314;6.280;2024-02-15T04:42:23;11.00;99.90
46494;DHT22;53214;49.314;6.280;2024-02-15T04:44:53;11.10;99.90
46494;DHT22;53214;49.314;6.280;2024-02-15T04:47:20;11.10;99.90
46494;DHT22;53214;49.314;6.280;2024-02-15T04:49:47;11.10;99.90
46494;DHT22;53214;49.314;6.280;2024-02-15T04:52:14;11.00;99.90
46494;DHT22;53214;49.314;6.280;2024-02-15T04:54:41;11.00;99.90
46494;DHT22;53214;49.314;6.280;2024-02-15T04:57:08;11.00;99.90
46494;DHT22;53214;49.314;6.280;2024-02-15T04:59:38;11.00;99.90
46494;DHT22;53214;49.314;6.280;2024-02-15T05:02:05;11.00;99.90
46494;DHT22;53214;49.314;6.280;2024-02-15T05:04:36;10.90;99.90
46494;DHT22;53214;49.314;6.280;2024-02-15T05:07:03;11.00;99.90
46494;DHT22;53214;49.314;6.280;2024-02-15T05:09:30;11.00;99.90
46494;DHT22;53214;49.314;6.280;2024-02-15T05:12:01;10.90;99.90
46494;DHT22;53214;49.314;6.280;2024-02-15T05:14:29;10.90;99.90
46494;DHT22;53214;49.314;6.280;2024-02-15T05:16:55;10.90;99.90
46494;DHT22;53214;49.314;6.280;2024-02-15T05:19:22;10.90;99.90
46494;DHT22;53214;49.314;6.280;2024-02-15T05:21:50;10.80;99.90
46494;DHT22;53214;49.314;6.280;2024-02-15T05:24:17;10.90;99.90
46494;DHT22;53214;49.314;6.280;2024-02-15T05:26:45;10.90;99.90
46494;DHT22;53214;49.314;6.280;2024-02-15T05:29:18;10.90;99.90
46494;DHT22;53214;49.314;6.280;2024-02-15T05:31:47;10.90;99.90
46494;DHT22;53214;49.314;6.280;2024-02-15T05:34:17;10.90;99.90
46494;DHT22;53214;49.314;6.280;2024-02-15T05:36:44;10.90;99.90
46494;DHT22;53214;49.314;6.280;2024-02-15T05:39:11;10.90;99.90
46494;DHT22;53214;49.314;6.280;2024-02-15T05:41:41;10.90;99.90
46494;DHT22;53214;49.314;6.280;2024-02-15T05:44:08;10.90;99.90
46494;DHT22;53214;49.314;6.280;2024-02-15T05:46:36;11.00;99.90
46494;DHT22;53214;49.314;6.280;2024-02-15T05:49:03;10.90;99.90
46494;DHT22;53214;49.314;6.280;2024-02-15T05:51:32;10.90;99.90
46494;DHT22;53214;49.314;6.280;2024-02-15T05:54:00;10.90;99.90
46494;DHT22;53214;49.314;6.280;2024-02-15T05:56:27;10.90;99.90
46494;DHT22;53214;49.314;6.280;2024-02-15T05:58:56;10.90;99.90
46494;DHT22;53214;49.314;6.280;2024-02-15T06:01:23;10.90;99.90
46494;DHT22;53214;49.314;6.280;2024-02-15T06:03:51;10.90;99.90
46494;DHT22;53214;49.314;6.280;2024-02-15T06:06:21;10.90;99.90
46494;DHT22;53214;49.314;6.280;2024-02-15T06:08:50;10.90;99.90
46494;DHT22;53214;49.314;6.280;2024-02-15T06:11:19;10.90;99.90
46494;DHT22;53214;49.314;6.280;2024-02-15T06:13:47;10.80;99.90
46494;DHT22;53214;49.314;6.280;2024-02-15T06:16:14;10.90;99.90
46494;DHT22;53214;49.314;6.280;2024-02-15T06:18:41;10.80;99.90
46494;DHT22;53214;49.314;6.280;2024-02-15T06:21:08;10.90;99.90
46494;DHT22;53214;49.314;6.280;2024-02-15T06:23:35;10.80;99.90
46494;DHT22;53214;49.314;6.280;2024-02-15T06:26:04;10.80;99.90
46494;DHT22;53214;49.314;6.280;2024-02-15T06:28:30;10.90;99.90
46494;DHT22;53214;49.314;6.280;2024-02-15T06:31:16;10.90;99.90
46494;DHT22;53214;49.314;6.280;2024-02-15T06:34:02;10.80;99.90
46494;DHT22;53214;49.314;6.280;2024-02-15T06:36:52;10.80;99.90
46494;DHT22;53214;49.314;6.280;2024-02-15T06:39:38;10.90;99.90
46494;DHT22;53214;49.314;6.280;2024-02-15T06:42:10;10.80;99.90
46494;DHT22;53214;49.314;6.280;2024-02-15T06:44:38;10.80;99.90
46494;DHT22;53214;49.314;6.280;2024-02-15T06:47:07;10.80;99.90
46494;DHT22;53214;49.314;6.280;2024-02-15T06:49:39;10.80;99.90
46494;DHT22;53214;49.314;6.280;2024-02-15T06:52:10;10.80;99.90
46494;DHT22;53214;49.314;6.280;2024-02-15T06:54:41;10.80;99.90
46494;DHT22;53214;49.314;6.280;2024-02-15T06:57:09;10.80;99.90
46494;DHT22;53214;49.314;6.280;2024-02-15T06:59:36;10.80;99.90
46494;DHT22;53214;49.314;6.280;2024-02-15T07:02:06;10.80;99.90
46494;DHT22;53214;49.314;6.280;2024-02-15T07:04:35;10.80;99.90
46494;DHT22;53214;49.314;6.280;2024-02-15T07:07:03;10.80;99.90
46494;DHT22;53214;49.314;6.280;2024-02-15T07:09:30;10.80;99.90
46494;DHT22;53214;49.314;6.280;2024-02-15T07:11:57;10.80;99.90
46494;DHT22;53214;49.314;6.280;2024-02-15T07:14:25;10.80;99.90
46494;DHT22;53214;49.314;6.280;2024-02-15T07:16:54;10.70;99.90
46494;DHT22;53214;49.314;6.280;2024-02-15T07:19:24;10.80;99.90
46494;DHT22;53214;49.314;6.280;2024-02-15T07:21:52;10.80;99.90
46494;DHT22;53214;49.314;6.280;2024-02-15T07:24:19;10.70;99.90
46494;DHT22;53214;49.314;6.280;2024-02-15T07:26:46;10.70;99.90
46494;DHT22;53214;49.314;6.280;2024-02-15T07:29:13;10.70;99.90
46494;DHT22;53214;49.314;6.280;2024-02-15T07:31:41;10.70;99.90
46494;DHT22;53214;49.314;6.280;2024-02-15T07:34:08;10.70;99.90
46494;DHT22;53214;49.314;6.280;2024-02-15T07:36:36;10.80;99.90
46494;DHT22;53214;49.314;6.280;2024-02-15T07:39:03;10.80;99.90
46494;DHT22;53214;49.314;6.280;2024-02-15T07:41:30;10.80;99.90
46494;DHT22;53214;49.314;6.280;2024-02-15T07:44:00;10.80;99.90
46494;DHT22;53214;49.314;6.280;2024-02-15T07:46:27;10.90;99.90
46494;DHT22;53214;49.314;6.280;2024-02-15T07:48:54;10.90;99.90
46494;DHT22;53214;49.314;6.280;2024-02-15T07:51:22;10.90;99.90
46494;DHT22;53214;49.314;6.280;2024-02-15T07:53:49;11.00;99.90
46494;DHT22;53214;49.314;6.280;2024-02-15T07:56:17;11.10;99.90
46494;DHT22;53214;49.314;6.280;2024-02-15T07:58:46;11.10;99.90
46494;DHT22;53214;49.314;6.280;2024-02-15T08:01:19;11.20;99.90
46494;DHT22;53214;49.314;6.280;2024-02-15T08:03:51;11.20;99.90
46494;DHT22;53214;49.314;6.280;2024-02-15T08:06:21;11.30;99.90
46494;DHT22;53214;49.314;6.280;2024-02-15T08:08:50;11.30;99.90
46494;DHT22;53214;49.314;6.280;2024-02-15T08:11:19;11.40;99.90
46494;DHT22;53214;49.314;6.280;2024-02-15T08:13:50;11.40;99.90
46494;DHT22;53214;49.314;6.280;2024-02-15T08:16:23;11.50;99.90
46494;DHT22;53214;49.314;6.280;2024-02-15T08:18:50;11.50;99.90
46494;DHT22;53214;49.314;6.280;2024-02-15T08:21:28;11.50;99.90
46494;DHT22;53214;49.314;6.280;2024-02-15T08:23:56;11.60;99.90
46494;DHT22;53214;49.314;6.280;2024-02-15T08:26:23;11.60;99.90
46494;DHT22;53214;49.314;6.280;2024-02-15T08:28:50;11.60;99.90
46494;DHT22;53214;49.314;6.280;2024-02-15T08:31:17;11.70;99.90
46494;DHT22;53214;49.314;6.280;2024-02-15T08:33:45;11.70;99.90
46494;DHT22;53214;49.314;6.280;2024-02-15T08:36:13;11.70;99.90
46494;DHT22;53214;49.314;6.280;2024-02-15T08:38:41;11.90;99.90
46494;DHT22;53214;49.314;6.280;2024-02-15T08:41:08;11.90;99.90
46494;DHT22;53214;49.314;6.280;2024-02-15T08:43:38;12.00;99.90
46494;DHT22;53214;49.314;6.280;2024-02-15T08:46:06;12.10;99.90
46494;DHT22;53214;49.314;6.280;2024-02-15T08:48:34;12.20;99.90
46494;DHT22;53214;49.314;6.280;2024-02-15T08:51:02;12.20;99.90
46494;DHT22;53214;49.314;6.280;2024-02-15T08:53:29;12.30;99.90
46494;DHT22;53214;49.314;6.280;2024-02-15T08:55:59;12.30;99.90
46494;DHT22;53214;49.314;6.280;2024-02-15T08:58:26;12.30;99.90
46494;DHT22;53214;49.314;6.280;2024-02-15T09:00:53;12.30;99.90
46494;DHT22;53214;49.314;6.280;2024-02-15T09:03:20;12.40;99.90
46494;DHT22;53214;49.314;6.280;2024-02-15T09:05:47;12.40;99.90
46494;DHT22;53214;49.314;6.280;2024-02-15T09:08:15;12.50;99.90
46494;DHT22;53214;49.314;6.280;2024-02-15T09:10:49;12.50;99.90
46494;DHT22;53214;49.314;6.280;2024-02-15T09:13:16;12.50;99.90
46494;DHT22;53214;49.314;6.280;2024-02-15T09:15:42;12.60;99.90
46494;DHT22;53214;49.314;6.280;2024-02-15T09:18:10;12.70;99.90
46494;DHT22;53214;49.314;6.280;2024-02-15T09:20:37;12.80;99.90
46494;DHT22;53214;49.314;6.280;2024-02-15T09:23:06;12.90;99.90
46494;DHT22;53214;49.314;6.280;2024-02-15T09:25:38;13.10;99.90
46494;DHT22;53214;49.314;6.280;2024-02-15T09:28:05;13.20;99.90
46494;DHT22;53214;49.314;6.280;2024-02-15T09:30:32;13.30;99.90
46494;DHT22;53214;49.314;6.280;2024-02-15T09:33:02;13.50;99.90
46494;DHT22;53214;49.314;6.280;2024-02-15T09:35:32;13.60;99.90
46494;DHT22;53214;49.314;6.280;2024-02-15T09:37:59;13.70;99.90
46494;DHT22;53214;49.314;6.280;2024-02-15T09:40:26;13.90;99.90
46494;DHT22;53214;49.314;6.280;2024-02-15T09:42:55;14.00;99.90
46494;DHT22;53214;49.314;6.280;2024-02-15T09:45:22;14.00;99.90
46494;DHT22;53214;49.314;6.280;2024-02-15T09:47:51;14.10;99.90
46494;DHT22;53214;49.314;6.280;2024-02-15T09:50:20;14.10;99.90
46494;DHT22;53214;49.314;6.280;2024-02-15T09:52:52;14.10;99.90
46494;DHT22;53214;49.314;6.280;2024-02-15T09:55:24;14.00;99.90
46494;DHT22;53214;49.314;6.280;2024-02-15T09:57:52;13.90;99.90
46494;DHT22;53214;49.314;6.280;2024-02-15T10:00:19;13.90;99.90
46494;DHT22;53214;49.314;6.280;2024-02-15T10:02:53;13.80;99.90
46494;DHT22;53214;49.314;6.280;2024-02-15T10:05:20;13.90;99.90
46494;DHT22;53214;49.314;6.280;2024-02-15T10:07:47;14.10;99.90
46494;DHT22;53214;49.314;6.280;2024-02-15T10:10:22;14.20;99.90
46494;DHT22;53214;49.314;6.280;2024-02-15T10:12:50;14.30;99.90
46494;DHT22;53214;49.314;6.280;2024-02-15T10:15:37;14.50;99.90
46494;DHT22;53214;49.314;6.280;2024-02-15T10:18:08;14.60;99.90
46494;DHT22;53214;49.314;6.280;2024-02-15T10:20:40;14.80;99.90
46494;DHT22;53214;49.314;6.280;2024-02-15T10:23:12;14.90;99.90
46494;DHT22;53214;49.314;6.280;2024-02-15T10:25:40;14.90;99.90
46494;DHT22;53214;49.314;6.280;2024-02-15T10:28:09;14.90;99.90
46494;DHT22;53214;49.314;6.280;2024-02-15T10:30:41;14.90;99.90
46494;DHT22;53214;49.314;6.280;2024-02-15T10:33:26;14.90;99.90
46494;DHT22;53214;49.314;6.280;2024-02-15T10:36:09;14.90;99.90
46494;DHT22;53214;49.314;6.280;2024-02-15T10:38:36;14.80;99.90
46494;DHT22;53214;49.314;6.280;2024-02-15T10:41:05;14.90;99.90
46494;DHT22;53214;49.314;6.280;2024-02-15T10:43:35;14.90;99.90
46494;DHT22;53214;49.314;6.280;2024-02-15T10:46:04;15.00;99.90
46494;DHT22;53214;49.314;6.280;2024-02-15T10:48:31;15.10;99.90
46494;DHT22;53214;49.314;6.280;2024-02-15T10:51:03;15.20;99.90
46494;DHT22;53214;49.314;6.280;2024-02-15T10:53:33;15.30;99.90
46494;DHT22;53214;49.314;6.280;2024-02-15T10:58:32;15.50;99.90
46494;DHT22;53214;49.314;6.280;2024-02-15T11:01:06;15.40;99.90
46494;DHT22;53214;49.314;6.280;2024-02-15T11:03:43;15.40;99.90
46494;DHT22;53214;49.314;6.280;2024-02-15T11:06:15;15.20;99.90
46494;DHT22;53214;49.314;6.280;2024-02-15T11:08:43;15.20;99.90
46494;DHT22;53214;49.314;6.280;2024-02-15T11:11:11;15.10;99.90
46494;DHT22;53214;49.314;6.280;2024-02-15T11:13:41;15.20;99.90
46494;DHT22;53214;49.314;6.280;2024-02-15T11:16:41;15.20;99.90
46494;DHT22;53214;49.314;6.280;2024-02-15T11:19:07;15.30;99.90
46494;DHT22;53214;49.314;6.280;2024-02-15T11:21:53;15.50;99.90
46494;DHT22;53214;49.314;6.280;2024-02-15T11:24:27;15.70;99.90
46494;DHT22;53214;49.314;6.280;2024-02-15T11:26:58;15.70;99.90
46494;DHT22;53214;49.314;6.280;2024-02-15T11:29:52;15.80;99.90
46494;DHT22;53214;49.314;6.280;2024-02-15T11:35:07;15.80;99.90
46494;DHT22;53214;49.314;6.280;2024-02-15T11:40:22;15.80;99.90
46494;DHT22;53214;49.314;6.280;2024-02-15T11:42:59;15.90;99.90
46494;DHT22;53214;49.314;6.280;2024-02-15T11:45:28;16.00;99.90
46494;DHT22;53214;49.314;6.280;2024-02-15T11:48:01;16.20;99.90
46494;DHT22;53214;49.314;6.280;2024-02-15T11:50:34;16.50;99.90
46494;DHT22;53214;49.314;6.280;2024-02-15T11:53:05;16.50;99.90
46494;DHT22;53214;49.314;6.280;2024-02-15T11:55:36;16.50;99.90
46494;DHT22;53214;49.314;6.280;2024-02-15T11:58:05;16.60;99.90
46494;DHT22;53214;49.314;6.280;2024-02-15T12:00:44;16.70;99.90
46494;DHT22;53214;49.314;6.280;2024-02-15T12:03:29;16.80;99.90
46494;DHT22;53214;49.314;6.280;2024-02-15T12:06:30;16.80;99.90
46494;DHT22;53214;49.314;6.280;2024-02-15T12:09:19;16.60;99.90
46494;DHT22;53214;49.314;6.280;2024-02-15T12:12:06;16.50;99.90
46494;DHT22;53214;49.314;6.280;2024-02-15T12:15:00;16.50;99.90
46494;DHT22;53214;49.314;6.280;2024-02-15T12:17:46;16.40;99.90
46494;DHT22;53214;49.314;6.280;2024-02-15T12:20:32;16.30;99.90
46494;DHT22;53214;49.314;6.280;2024-02-15T12:23:00;16.30;99.90
46494;DHT22;53214;49.314;6.280;2024-02-15T12:25:28;16.30;99.90
46494;DHT22;53214;49.314;6.280;2024-02-15T12:27:56;16.40;99.90
46494;DHT22;53214;49.314;6.280;2024-02-15T12:30:23;16.40;99.90
46494;DHT22;53214;49.314;6.280;2024-02-15T12:32:53;16.50;99.90
46494;DHT22;53214;49.314;6.280;2024-02-15T12:35:35;16.50;99.90
46494;DHT22;53214;49.314;6.280;2024-02-15T12:38:03;16.50;99.90
46494;DHT22;53214;49.314;6.280;2024-02-15T12:40:36;16.50;99.90
46494;DHT22;53214;49.314;6.280;2024-02-15T12:43:07;16.40;99.90
46494;DHT22;53214;49.314;6.280;2024-02-15T12:45:38;16.50;99.90
46494;DHT22;53214;49.314;6.280;2024-02-15T12:48:07;16.40;99.90
46494;DHT22;53214;49.314;6.280;2024-02-15T12:50:35;16.40;99.90
46494;DHT22;53214;49.314;6.280;2024-02-15T12:53:03;16.40;99.90
46494;DHT22;53214;49.314;6.280;2024-02-15T12:55:30;16.40;99.90
46494;DHT22;53214;49.314;6.280;2024-02-15T12:58:06;16.50;99.90
46494;DHT22;53214;49.314;6.280;2024-02-15T13:00:36;16.60;99.90
46494;DHT22;53214;49.314;6.280;2024-02-15T13:03:08;16.70;99.90
46494;DHT22;53214;49.314;6.280;2024-02-15T13:05:38;16.90;99.90
46494;DHT22;53214;49.314;6.280;2024-02-15T13:08:05;17.00;99.90
46494;DHT22;53214;49.314;6.280;2024-02-15T13:10:37;17.00;99.90
46494;DHT22;53214;49.314;6.280;2024-02-15T13:13:06;17.10;99.90
46494;DHT22;53214;49.314;6.280;2024-02-15T13:15:33;17.10;99.90
46494;DHT22;53214;49.314;6.280;2024-02-15T13:18:01;17.10;99.90
46494;DHT22;53214;49.314;6.280;2024-02-15T13:20:32;17.10;99.90
46494;DHT22;53214;49.314;6.280;2024-02-15T13:23:04;17.10;99.90
46494;DHT22;53214;49.314;6.280;2024-02-15T13:26:01;17.10;99.90
46494;DHT22;53214;49.314;6.280;2024-02-15T13:28:31;17.10;99.90
46494;DHT22;53214;49.314;6.280;2024-02-15T13:30:57;17.20;99.90
46494;DHT22;53214;49.314;6.280;2024-02-15T13:33:24;17.40;99.90
46494;DHT22;53214;49.314;6.280;2024-02-15T13:35:53;17.40;99.90
46494;DHT22;53214;49.314;6.280;2024-02-15T13:38:20;17.50;99.90
46494;DHT22;53214;49.314;6.280;2024-02-15T13:40:51;17.40;99.90
46494;DHT22;53214;49.314;6.280;2024-02-15T13:43:18;17.50;99.90
46494;DHT22;53214;49.314;6.280;2024-02-15T13:45:45;17.50;99.90
46494;DHT22;53214;49.314;6.280;2024-02-15T13:48:12;17.40;99.90
46494;DHT22;53214;49.314;6.280;2024-02-15T13:50:43;17.50;99.90
46494;DHT22;53214;49.314;6.280;2024-02-15T13:53:12;17.50;99.90
46494;DHT22;53214;49.314;6.280;2024-02-15T13:55:40;17.60;99.90
46494;DHT22;53214;49.314;6.280;2024-02-15T13:58:07;17.60;99.90
46494;DHT22;53214;49.314;6.280;2024-02-15T14:00:40;17.60;99.90
46494;DHT22;53214;49.314;6.280;2024-02-15T14:03:11;17.70;99.90
46494;DHT22;53214;49.314;6.280;2024-02-15T14:05:38;17.60;99.90
46494;DHT22;53214;49.314;6.280;2024-02-15T14:08:08;17.60;99.90
46494;DHT22;53214;49.314;6.280;2024-02-15T14:10:41;17.60;99.90
46494;DHT22;53214;49.314;6.280;2024-02-15T14:13:09;17.60;99.90
46494;DHT22;53214;49.314;6.280;2024-02-15T14:15:38;17.60;99.90
46494;DHT22;53214;49.314;6.280;2024-02-15T14:18:10;17.50;99.90
46494;DHT22;53214;49.314;6.280;2024-02-15T14:20:38;17.40;99.90
46494;DHT22;53214;49.314;6.280;2024-02-15T14:23:05;17.30;99.90
46494;DHT22;53214;49.314;6.280;2024-02-15T14:25:33;17.30;99.90
46494;DHT22;53214;49.314;6.280;2024-02-15T14:28:01;17.30;99.90
46494;DHT22;53214;49.314;6.280;2024-02-15T14:30:29;17.30;99.90
46494;DHT22;53214;49.314;6.280;2024-02-15T14:33:15;17.30;99.90
46494;DHT22;53214;49.314;6.280;2024-02-15T14:35:46;17.30;99.90
46494;DHT22;53214;49.314;6.280;2024-02-15T14:38:14;17.40;99.90
46494;DHT22;53214;49.314;6.280;2024-02-15T14:40:46;17.50;99.90
46494;DHT22;53214;49.314;6.280;2024-02-15T14:43:17;17.50;99.90
46494;DHT22;53214;49.314;6.280;2024-02-15T14:45:48;17.50;99.90
46494;DHT22;53214;49.314;6.280;2024-02-15T14:48:15;17.50;99.90
46494;DHT22;53214;49.314;6.280;2024-02-15T14:50:45;17.50;99.90
46494;DHT22;53214;49.314;6.280;2024-02-15T14:53:13;17.60;99.90
46494;DHT22;53214;49.314;6.280;2024-02-15T14:55:42;17.70;99.90
46494;DHT22;53214;49.314;6.280;2024-02-15T14:58:13;17.70;99.90
46494;DHT22;53214;49.314;6.280;2024-02-15T15:00:40;17.70;99.90
46494;DHT22;53214;49.314;6.280;2024-02-15T15:03:12;17.90;99.90
46494;DHT22;53214;49.314;6.280;2024-02-15T15:05:43;18.10;99.90
46494;DHT22;53214;49.314;6.280;2024-02-15T15:08:30;18.00;99.90
46494;DHT22;53214;49.314;6.280;2024-02-15T15:11:15;18.00;99.90
46494;DHT22;53214;49.314;6.280;2024-02-15T15:14:01;17.70;99.90
46494;DHT22;53214;49.314;6.280;2024-02-15T15:16:31;17.60;99.90
46494;DHT22;53214;49.314;6.280;2024-02-15T15:18:57;17.50;99.90
46494;DHT22;53214;49.314;6.280;2024-02-15T15:21:24;17.40;99.90
46494;DHT22;53214;49.314;6.280;2024-02-15T15:23:54;17.30;99.90
46494;DHT22;53214;49.314;6.280;2024-02-15T15:26:22;17.30;99.90
46494;DHT22;53214;49.314;6.280;2024-02-15T15:28:49;17.10;99.90
46494;DHT22;53214;49.314;6.280;2024-02-15T15:31:17;17.10;99.90
46494;DHT22;53214;49.314;6.280;2024-02-15T15:33:48;17.00;99.90
46494;DHT22;53214;49.314;6.280;2024-02-15T15:36:19;17.00;99.90
46494;DHT22;53214;49.314;6.280;2024-02-15T15:38:48;17.00;99.90
46494;DHT22;53214;49.314;6.280;2024-02-15T15:41:17;17.00;99.90
46494;DHT22;53214;49.314;6.280;2024-02-15T15:43:43;17.00;99.90
46494;DHT22;53214;49.314;6.280;2024-02-15T15:46:14;16.90;99.90
46494;DHT22;53214;49.314;6.280;2024-02-15T15:48:41;16.90;99.90
46494;DHT22;53214;49.314;6.280;2024-02-15T15:51:10;16.80;99.90
46494;DHT22;53214;49.314;6.280;2024-02-15T15:53:37;16.70;99.90